Latest Weather Observations for Newman Airport

IDW60801

Issued at 6:05 pm WST Saturday 22 November 2014 (issued every 30 minutes, with the page automatically refreshed every 10 minutes)

About weather observations | Map of weather stations | Latest weather observations for WA | Other Formats
Station Details ID: 007176 Name: NEWMAN AERO Lat: -23.42 Lon: 119.80 Height: 524.0 m
Data from the previous 72 hours. | See also: Recent months at Newman Airport
Date/Time
WST
Temp
°C
App
Temp
°C
Dew
Point
Rel
Hum
%
Delta-T
°C
Wind Press
QNH
hPa
Press
MSL
hPa
Rain
since 9 am
mm
Dir
 
Spd
km/h
Gust
km/h
Spd
kts
Gust
kts
22/06:00pm 37.5 32.5 -4.1 7 20.1 SW 13 20 7 11 1008.9 1005.0 0.0
22/05:30pm 37.7 31.6 -3.9 7 20.2 SW 19 28 10 15 1008.7 1004.8 0.0
22/05:00pm 38.5 32.8 -3.4 7 20.6 S 17 24 9 13 1008.6 1004.7 0.0
22/04:30pm 39.2 31.9 -2.9 7 20.9 SW 26 39 14 21 1008.3 1004.4 0.0
22/04:00pm 38.7 32.7 -3.2 7 20.7 W 19 30 10 16 1008.5 1004.6 0.0
22/03:30pm 39.6 33.2 -4.6 6 21.4 NW 20 32 11 17 1008.4 1004.5 0.0
22/03:00pm 39.4 33.0 -7.2 5 21.7 N 19 26 10 14 1008.9 1005.0 0.0
22/02:30pm 39.6 33.0 -7.0 5 21.8 NW 20 32 11 17 1009.3 1005.3 0.0
22/02:11pm 39.9 31.8 -6.8 5 21.9 WNW 28 41 15 22 1009.6 1005.6 0.0
22/02:00pm 38.7 34.1 -7.6 5 21.3 NE 9 17 5 9 1009.8 1005.9 0.0
22/01:30pm 38.1 32.3 -8.1 5 21.0 NNW 15 20 8 11 1010.2 1006.3 0.0
22/01:00pm 38.8 33.7 -5.2 6 21.0 NW 13 26 7 14 1010.6 1006.7 0.0
22/12:30pm 37.0 31.2 -4.4 7 19.8 W 17 26 9 14 1011.2 1007.3 0.0
22/12:00pm 36.7 31.1 -6.7 6 20.0 WSW 15 24 8 13 1011.4 1007.5 0.0
22/11:30am 36.5 31.6 -3.0 8 19.2 W 13 22 7 12 1011.9 1008.0 0.0
22/11:00am 35.1 30.5 -4.1 8 18.6 S 11 22 6 12 1012.2 1008.3 0.0
22/10:30am 34.1 29.0 -4.8 8 18.1 SW 13 20 7 11 1012.5 1008.6 0.0
22/10:00am 32.9 28.7 -4.1 9 17.3 S 9 19 5 10 1012.9 1009.0 0.0
22/09:30am 32.0 27.3 -4.8 9 16.8 S 11 20 6 11 1013.0 1009.1 0.0
22/09:00am 31.6 27.0 -3.7 10 16.4 SSW 11 17 6 9 1013.5 1009.6 0.0
22/08:30am 31.5 26.7 -2.5 11 16.1 S 13 20 7 11 1013.2 1009.4 0.0
22/08:00am 29.8 24.2 -2.6 12 15.2 S 17 24 9 13 1013.4 1009.5 0.0
22/07:30am 28.7 23.3 -1.4 14 14.3 S 17 22 9 12 1013.2 1009.4 0.0
22/07:00am 26.5 21.6 1.7 20 12.2 SSW 17 20 9 11 1013.0 1009.1 0.0
22/06:30am 24.8 20.7 2.3 23 11.1 SW 13 19 7 10 1012.7 1008.8 0.0
22/06:00am 22.2 18.8 3.8 30 9.2 WSW 11 17 6 9 1012.4 1008.5 0.0
22/05:30am 21.5 18.4 3.7 31 8.8 WSW 9 13 5 7 1012.2 1008.3 0.0
22/05:00am 21.4 18.3 3.6 31 8.8 SW 9 13 5 7 1011.8 1007.9 0.0
22/04:30am 22.3 19.1 2.9 28 9.5 WSW 9 15 5 8 1011.7 1007.8 0.0
22/04:00am 23.0 19.7 2.5 26 10.0 WSW 9 13 5 7 1011.5 1007.6 0.0
22/03:30am 23.4 19.7 2.3 25 10.3 WSW 11 15 6 8 1011.1 1007.2 0.0
22/03:00am 23.0 20.1 2.5 26 10.0 WSW 7 11 4 6 1011.2 1007.3 0.0
22/02:30am 23.1 19.9 3.1 27 9.9 WSW 9 11 5 6 1011.1 1007.2 0.0
22/02:00am 23.8 21.0 3.2 26 10.3 WSW 7 9 4 5 1011.1 1007.2 0.0
22/01:30am 24.7 21.5 2.8 24 10.9 WSW 9 11 5 6 1011.0 1007.1 0.0
22/01:00am 25.4 21.4 2.8 23 11.3 WSW 13 15 7 8 1011.1 1007.2 0.0
22/12:30am 24.9 21.8 3.5 25 10.8 WSW 9 11 5 6 1011.1 1007.2 0.0
22/12:00am 25.3 22.1 3.3 24 11.1 WSW 9 9 5 5 1011.1 1007.2 0.0
 
Date/Time
WST
Temp
°C
App
Temp
°C
Dew
Point
Rel
Hum
%
Delta-T
°C
Wind Press
QNH
hPa
Press
MSL
hPa
Rain
since 9 am
mm
Dir
 
Spd
km/h
Gust
km/h
Spd
kts
Gust
kts
21/11:30pm 26.0 23.3 3.9 24 11.3 W 7 7 4 4 1011.0 1007.1 0.0
21/11:00pm 27.2 24.4 3.0 21 12.3 W 7 9 4 5 1011.1 1007.2 0.0
21/10:30pm 28.3 25.1 3.2 20 12.8 WNW 9 11 5 6 1011.1 1007.2 0.0
21/10:00pm 29.6 26.2 2.0 17 14.0 W 9 9 5 5 1011.0 1007.1 0.0
21/09:30pm 31.2 27.4 1.5 15 15.0 W 11 15 6 8 1010.8 1006.9 0.0
21/09:00pm 31.5 27.7 1.8 15 15.2 WSW 11 15 6 8 1010.6 1006.7 0.0
21/08:30pm 32.4 28.2 1.5 14 15.8 WSW 13 19 7 10 1010.4 1006.5 0.0
21/08:00pm 32.8 28.6 1.8 14 15.9 SW 13 19 7 10 1010.3 1006.4 0.0
21/07:30pm 33.9 29.1 0.5 12 16.9 WSW 15 22 8 12 1010.2 1006.3 0.0
21/07:00pm 34.7 29.5 -0.1 11 17.6 SW 17 24 9 13 1009.9 1006.0 0.0
21/06:30pm 35.7 29.5 -0.6 10 18.3 SW 22 30 12 16 1009.5 1005.5 0.0
21/06:00pm 37.1 31.0 0.4 10 18.9 WSW 22 37 12 20 1009.1 1005.2 0.0
21/05:30pm 37.8 31.2 -0.5 9 19.5 WSW 24 37 13 20 1008.9 1005.0 0.0
21/05:00pm 38.8 31.9 0.3 9 20.0 W 26 39 14 21 1008.7 1004.8 0.0
21/04:30pm 38.6 34.2 0.1 9 19.9 SW 13 20 7 11 1008.7 1004.8 0.0
21/04:00pm 38.8 33.8 -1.4 8 20.4 WSW 15 20 8 11 1008.8 1004.9 0.0
21/03:30pm 39.1 33.4 -1.1 8 20.5 W 19 24 10 13 1009.0 1005.1 0.0
21/03:00pm 39.3 34.2 0.6 9 20.3 SW 17 20 9 11 1009.3 1005.3 0.0
21/02:30pm 39.1 33.2 -1.1 8 20.5 W 20 30 11 16 1009.7 1005.8 0.0
21/02:00pm 38.9 32.4 0.3 9 20.1 W 24 41 13 22 1010.0 1006.1 0.0
21/01:30pm 38.0 31.4 -0.3 9 19.6 W 24 39 13 21 1010.5 1006.6 0.0
21/01:00pm 38.6 34.0 1.6 10 19.6 NW 15 28 8 15 1011.0 1007.1 0.0
21/12:30pm 37.7 32.2 0.9 10 19.2 W 19 33 10 18 1011.5 1007.6 0.0
21/12:00pm 37.2 31.5 0.5 10 19.0 W 20 30 11 16 1012.1 1008.2 0.0
21/11:30am 36.0 30.0 0.9 11 18.1 WSW 22 32 12 17 1012.5 1008.6 0.0
21/11:00am 35.7 30.0 0.7 11 18.0 WSW 20 26 11 14 1012.8 1008.9 0.0
21/10:30am 34.9 29.3 0.1 11 17.6 SW 19 28 10 15 1013.2 1009.4 0.0
21/10:00am 33.7 30.2 1.5 13 16.6 S 9 19 5 10 1013.5 1009.6 0.0
21/09:30am 32.8 29.2 2.8 15 15.7 SSW 11 17 6 9 1013.8 1009.9 0.0
21/09:00am 31.2 26.7 2.4 16 14.8 SW 15 20 8 11 1014.0 1010.1 0.0
21/08:30am 30.4 25.4 3.4 18 14.0 SW 19 26 10 14 1013.9 1010.0 0.0
21/08:00am 29.5 24.6 4.2 20 13.3 SW 19 26 10 14 1013.8 1009.9 0.0
21/07:30am 28.7 23.5 3.5 20 13.0 SW 20 32 11 17 1013.9 1010.0 0.0
21/07:00am 27.7 22.7 3.4 21 12.4 WSW 19 30 10 16 1013.7 1009.8 0.0
21/06:30am 25.7 22.2 3.6 24 11.2 WSW 11 17 6 9 1013.5 1009.6 0.0
21/06:00am 22.9 19.3 4.9 31 9.2 WSW 13 19 7 10 1013.0 1009.1 0.0
21/05:30am 22.3 18.2 4.4 31 9.0 WSW 15 19 8 10 1012.7 1008.8 0.0
21/05:00am 22.2 17.7 4.3 31 9.0 WSW 17 20 9 11 1012.4 1008.5 0.0
21/04:30am 22.7 18.6 4.2 30 9.3 WSW 15 20 8 11 1012.3 1008.4 0.0
21/04:00am 22.8 19.1 4.3 30 9.3 WSW 13 15 7 8 1012.1 1008.2 0.0
21/03:30am 23.7 19.5 3.6 27 10.1 WSW 15 19 8 10 1011.9 1008.0 0.0
21/03:00am 23.8 19.6 3.7 27 10.1 WSW 15 17 8 9 1011.8 1007.9 0.0
21/02:30am 24.4 20.2 3.7 26 10.4 WSW 15 17 8 9 1011.7 1007.8 0.0
21/02:00am 24.6 21.1 3.3 25 10.7 WSW 11 15 6 8 1011.6 1007.7 0.0
21/01:30am 25.5 21.5 2.9 23 11.3 WSW 13 17 7 9 1011.5 1007.6 0.0
21/01:00am 26.3 21.8 2.3 21 11.9 W 15 19 8 10 1011.6 1007.7 0.0
21/12:30am 26.0 22.2 3.9 24 11.3 WSW 13 17 7 9 1011.6 1007.7 0.0
21/12:00am 23.8 21.5 5.7 31 9.4 WSW 7 9 4 5 1011.8 1007.9 0.0
 
Date/Time
WST
Temp
°C
App
Temp
°C
Dew
Point
Rel
Hum
%
Delta-T
°C
Wind Press
QNH
hPa
Press
MSL
hPa
Rain
since 9 am
mm
Dir
 
Spd
km/h
Gust
km/h
Spd
kts
Gust
kts
20/11:30pm 25.5 23.6 5.1 27 10.6 SSW 4 7 2 4 1012.0 1008.1 0.0
20/11:00pm 25.7 24.6 5.3 27 10.7 CALM 0 2 0 1 1012.1 1008.2 0.0
20/10:30pm 27.1 25.9 4.8 24 11.6 CALM 0 0 0 0 1012.2 1008.3 0.0
20/10:00pm 27.5 25.1 4.5 23 12.0 WSW 6 7 3 4 1012.3 1008.4 0.0
20/09:30pm 28.1 25.2 4.4 22 12.4 W 9 9 5 5 1012.3 1008.4 0.0
20/09:00pm 28.9 26.0 4.4 21 12.9 WSW 9 11 5 6 1012.1 1008.2 0.0
20/08:30pm 30.1 27.5 4.0 19 13.7 WSW 7 9 4 5 1011.9 1008.0 0.0
20/08:00pm 31.2 28.0 3.3 17 14.6 SW 9 13 5 7 1011.6 1007.7 0.0
20/07:30pm 32.5 28.8 2.5 15 15.6 SW 11 15 6 8 1011.2 1007.3 0.0
20/07:00pm 33.6 29.9 2.4 14 16.3 SW 11 15 6 8 1010.9 1007.0 0.0
20/06:30pm 35.0 30.0 1.4 12 17.4 SW 17 22 9 12 1010.7 1006.8 0.0
20/06:00pm 36.5 30.7 0.0 10 18.6 W 20 26 11 14 1010.4 1006.5 0.0
20/05:30pm 37.4 32.3 0.7 10 19.0 W 17 24 9 13 1010.3 1006.4 0.0
20/05:00pm 37.6 32.1 0.8 10 19.2 WSW 19 30 10 16 1010.2 1006.3 0.0
20/04:30pm 37.2 33.8 1.8 11 18.6 WSW 9 13 5 7 1010.3 1006.4 0.0
20/04:00pm 37.1 33.9 3.0 12 18.3 W 9 20 5 11 1010.5 1006.6 0.0
20/03:30pm 37.2 32.1 3.1 12 18.3 W 19 32 10 17 1010.7 1006.8 0.0
20/03:00pm 36.9 33.7 2.8 12 18.2 W 9 20 5 11 1011.0 1007.1 0.0
20/02:30pm 36.7 33.1 2.7 12 18.1 NW 11 20 6 11 1011.5 1007.6 0.0
20/02:00pm 36.4 31.6 2.4 12 18.0 W 17 32 9 17 1011.9 1008.0 0.0
20/01:30pm 36.7 31.3 2.7 12 18.1 W 20 33 11 18 1012.4 1008.5 0.0
20/01:00pm 36.8 31.1 2.8 12 18.2 SW 22 32 12 17 1012.9 1009.0 0.0
20/12:30pm 35.0 29.6 2.5 13 17.1 WSW 20 30 11 16 1013.6 1009.7 0.0
20/12:00pm 34.0 29.1 1.7 13 16.7 WSW 17 32 9 17 1014.1 1010.2 0.0
20/11:30am 33.3 30.0 2.2 14 16.1 S 9 11 5 6 1014.5 1010.6 0.0
20/11:00am 31.9 27.8 2.1 15 15.3 SSW 13 22 7 12 1014.9 1011.1 0.0
20/10:30am 31.4 28.6 3.4 17 14.6 SSE 7 17 4 9 1015.5 1011.6 0.0
20/10:00am 30.2 27.2 4.0 19 13.7 SE 9 17 5 9 1015.9 1012.0 0.0
20/09:30am 29.0 26.3 3.8 20 13.1 SSE 7 15 4 8 1016.0 1012.1 0.0
20/09:00am 28.2 24.5 4.5 22 12.4 S 13 20 7 11 1016.3 1012.4 0.0
20/08:30am 27.9 23.9 4.9 23 12.1 SE 15 22 8 12 1016.3 1012.4 0.0
20/08:00am 26.6 22.2 5.0 25 11.3 SSE 17 22 9 12 1016.1 1012.2 0.0
20/07:30am 25.2 21.0 5.9 29 10.2 SSE 17 22 9 12 1016.0 1012.1 0.0
20/07:00am 24.3 20.7 6.6 32 9.4 S 15 19 8 10 1015.7 1011.8 0.0
20/06:30am 22.8 19.9 6.6 35 8.5 SW 11 15 6 8 1015.5 1011.6 0.0
20/06:00am 21.2 18.6 6.3 38 7.7 WSW 9 13 5 7 1015.2 1011.4 0.0
20/05:30am 19.4 16.9 6.5 43 6.6 WSW 9 13 5 7 1014.9 1011.1 0.0
20/05:00am 19.2 16.4 7.0 45 6.3 WSW 11 13 6 7 1014.8 1011.0 0.0
20/04:30am 19.7 17.3 6.8 43 6.7 WSW 9 11 5 6 1014.6 1010.7 0.0
20/04:00am 20.2 17.8 7.2 43 6.8 WSW 9 13 5 7 1014.6 1010.7 0.0
20/03:30am 20.0 17.7 7.4 44 6.6 WSW 9 11 5 6 1014.4 1010.5 0.0
20/03:00am 20.5 18.1 7.2 42 7.0 SSW 9 11 5 6 1014.3 1010.4 0.0
20/02:30am 21.4 19.0 6.9 39 7.6 WSW 9 13 5 7 1014.2 1010.3 0.0
20/02:00am 21.9 19.4 6.6 37 8.0 WSW 9 13 5 7 1014.1 1010.2 0.0
20/01:30am 22.1 20.1 7.1 38 7.9 WSW 7 9 4 5 1014.1 1010.2 0.0
20/01:00am 22.6 20.5 6.8 36 8.3 WSW 7 9 4 5 1014.3 1010.4 0.0
20/12:30am 23.9 21.3 6.2 32 9.3 SW 9 11 5 6 1014.5 1010.6 0.0
20/12:00am 24.6 22.1 6.4 31 9.6 SW 9 11 5 6 1014.7 1010.8 0.0
 
Date/Time
WST
Temp
°C
App
Temp
°C
Dew
Point
Rel
Hum
%
Delta-T
°C
Wind Press
QNH
hPa
Press
MSL
hPa
Rain
since 9 am
mm
Dir
 
Spd
km/h
Gust
km/h
Spd
kts
Gust
kts
19/11:30pm 25.8 22.8 5.9 28 10.5 SW 11 17 6 9 1014.8 1011.0 0.0
19/11:00pm 26.6 22.7 5.5 26 11.1 SW 15 20 8 11 1014.7 1010.8 0.0
19/10:30pm 27.1 24.0 5.4 25 11.5 SW 11 15 6 8 1014.7 1010.8 0.0
19/10:00pm 28.0 24.3 6.2 25 11.7 SW 15 22 8 12 1014.5 1010.6 0.0
19/09:30pm 28.7 25.3 6.1 24 12.2 SW 13 19 7 10 1014.2 1010.3 0.0
19/09:00pm 29.0 26.3 5.8 23 12.5 SW 9 13 5 7 1013.7 1009.8 0.0
19/08:30pm 29.7 26.6 5.7 22 12.9 SW 11 19 6 10 1013.4 1009.5 0.0
19/08:00pm 30.5 27.1 5.7 21 13.4 WSW 13 19 7 10 1012.9 1009.0 0.0
19/07:30pm 31.7 27.4 5.3 19 14.3 WSW 17 28 9 15 1012.6 1008.7 0.0
19/07:00pm 32.2 27.8 4.9 18 14.7 WSW 17 26 9 14 1012.2 1008.3 0.0
19/06:30pm 33.0 27.4 5.5 18 15.0 WSW 24 35 13 19 1011.7 1007.8 0.0

Other Formats:

Comma delimited format used in spreadsheet applications
http://www.bom.gov.au/fwo/IDW60801/IDW60801.94317.axf

JavaScript Object Notation format (JSON) in row-major order
http://www.bom.gov.au/fwo/IDW60801/IDW60801.94317.json